Flight Track Log - Related Links

Times and Time Zones

All times are in EDT time to prevent confusion due to time zone crossing. See the SKW2988 flight status page for this flight to view local times or setup timezone preferences in your user account.

Time Position Orientation Groundspeed Altitude Reporting Facility
EDT Latitude Longitude Course Direction KTS MPH feet Rate Location/Type
Thu 12:55:23 AM 33.4333 -112.0833 69° East 196 226 3,000  Level Phoenix TRACON
Thu 12:56:12 AM 33.4392 -112.1222 280° West 202 232 4,900 1,872 Climbing Albuquerque Center
Thu 12:57:12 AM 33.4950 -112.1244 358° North 259 298 6,400 2,083 Climbing Albuquerque Center
Thu 12:58:13 AM 33.5536 -112.0608 42° Northeast 285 328 9,100 2,311 Climbing Albuquerque Center
Thu 12:59:14 AM 33.6019 -111.9878 52° Northeast 295 339 11,100 1,736 Climbing Albuquerque Center
Thu 01:00:00 AM 33.6549 -111.3565 69° East  Level FlightAware Approximate
Thu 01:00:14 AM 33.6136 -111.8836 82° East 318 366 12,600  Level Albuquerque Center
Thu 01:01:15 AM 33.6269 -111.7722 82° East 338 389 14,500 1,785 Climbing Albuquerque Center
Thu 01:02:15 AM 33.6408 -111.6589 82° East 347 399 16,200 1,636 Climbing Albuquerque Center
Thu 01:03:16 AM 33.6569 -111.5192 82° East 358 412 17,800 1,377 Climbing Albuquerque Center
Thu 01:04:17 AM 33.6728 -111.3967 81° East 372 428 19,000 1,240 Climbing Albuquerque Center
Thu 01:05:17 AM 33.6883 -111.2708 82° East 383 441 20,300 1,339 Climbing Albuquerque Center
Thu 01:06:18 AM 33.7300 -111.1539 67° East 387 445 21,700 1,230 Climbing Albuquerque Center
Thu 01:07:19 AM 33.7706 -111.0364 67° East 384 442 22,800 1,041 Climbing Albuquerque Center
Thu 01:08:19 AM 33.8133 -110.9153 67° East 391 450 23,800 942 Climbing Albuquerque Center
Thu 01:09:20 AM 33.8572 -110.7928 67° East 397 457 24,700 836 Climbing Albuquerque Center
Thu 01:10:21 AM 33.9000 -110.6675 68° East 404 465 25,500 843 Climbing Albuquerque Center
Thu 01:11:21 AM 33.9467 -110.5394 66° East 413 475 26,400 744 Climbing Albuquerque Center
Thu 01:12:22 AM 33.9911 -110.4083 68° East 420 483 27,000 295 Climbing Albuquerque Center
Thu 01:13:23 AM 34.0394 -110.2681 67° East 434 499 27,000  Level Albuquerque Center
Thu 01:14:23 AM 34.0889 -110.1275 67° East 451 519 27,000  Level Albuquerque Center
Thu 01:15:24 AM 34.1439 -109.9731 67° East 456 525 27,000  Level Albuquerque Center
Thu 01:16:24 AM 34.1889 -109.8381 68° East 455 524 27,000  Level Albuquerque Center
Thu 01:17:25 AM 34.2417 -109.6842 67° East 448 516 27,000  Level Albuquerque Center
Thu 01:18:26 AM 34.2872 -109.5497 68° East 449 517 27,000  Level Albuquerque Center
Thu 01:19:26 AM 34.3325 -109.4186 67° East 447 514 27,000  Level Albuquerque Center
Thu 01:20:27 AM 34.3844 -109.2633 68° East 446 513 27,000  Level Albuquerque Center
Thu 01:21:27 AM 34.4267 -109.1308 69° East 444 511 27,000  Level Albuquerque Center
Thu 01:22:28 AM 34.4447 -108.9847 81° East 455 524 27,000  Level Albuquerque Center
Thu 01:23:29 AM 34.4656 -108.8175 81° East 454 522 27,000  Level Albuquerque Center
Thu 01:24:29 AM 34.4842 -108.6731 81° East 454 522 27,000  Level Albuquerque Center
Thu 01:25:30 AM 34.5019 -108.5322 81° East 449 517 27,000  Level Albuquerque Center
Thu 01:26:30 AM 34.5233 -108.3922 79° East 450 518 27,000 -198 Level Albuquerque Center
Thu 01:27:31 AM 34.5500 -108.2447 78° East 448 516 26,600 -639 Descending Albuquerque Center
Thu 01:28:32 AM 34.5744 -108.0978 79° East 447 514 25,700 -942 Descending Albuquerque Center
Thu 01:29:32 AM 34.5981 -107.9569 78° East 435 501 24,700 -1,388 Descending Albuquerque Center
Thu 01:30:33 AM 34.6311 -107.7892 76° East 429 494 22,900 -1,785 Descending Albuquerque Center
Thu 01:31:33 AM 34.6828 -107.6700 62° Northeast 405 466 21,100 -1,835 Descending Albuquerque Center
Thu 01:32:34 AM 34.7333 -107.5533 62° Northeast 395 455 19,200 -1,818 Descending Albuquerque Center
Thu 01:33:12 AM 34.7633 -107.4806 63° Northeast 366 421 18,100 -1,500 Descending Albuquerque Center
Thu 01:33:34 AM 34.7803 -107.4458 59° Northeast 372 428 17,700 -1,500 Descending Albuquerque Center
Thu 01:34:12 AM 34.8072 -107.3742 65° Northeast 343 395 16,600 -1,672 Descending Albuquerque Center
Thu 01:34:35 AM 34.8231 -107.3422 59° Northeast 352 405 16,000 -1,869 Descending Albuquerque Center
Thu 01:35:13 AM 34.8514 -107.2703 64° Northeast 343 395 14,700 -1,900 Descending Albuquerque Center
Thu 01:35:35 AM 34.8683 -107.2375 58° Northeast 348 400 14,100 -1,770 Descending Albuquerque Center
Thu 01:36:14 AM 34.8975 -107.1656 64° Northeast 350 403 12,900 -1,770 Descending Albuquerque Center
Thu 01:36:36 AM 34.9111 -107.1342 62° Northeast 346 398 12,300 -1,727 Descending Albuquerque Center
Thu 01:37:20 AM 34.9428 -107.0558 64° Northeast 336 387 11,000 -1,600 Descending Albuquerque Center
Thu 01:37:36 AM 34.9528 -107.0339 61° Northeast 341 392 10,700 -1,279 Descending Albuquerque Center
Thu 01:38:21 AM 34.9806 -106.9661 63° Northeast 297 342 9,700 -1,180 Descending Albuquerque Center
Thu 01:38:37 AM 34.9897 -106.9450 62° Northeast 317 365 9,500 -984 Descending Albuquerque Center
Thu 01:39:22 AM 35.0150 -106.8822 64° Northeast 263 303 8,700 -1,000 Descending Albuquerque Center
Thu 01:39:37 AM 35.0206 -106.8664 67° East 287 330 8,500 -600 Descending Albuquerque Center
Thu 01:40:22 AM 35.0428 -106.8078 65° Northeast 211 243 8,100 -393 Descending Albuquerque Center
Thu 01:40:38 AM 35.0436 -106.8000 83° East 247 284 8,100 -590 Level Albuquerque Center
Thu 01:41:23 AM 35.0433 -106.7375 90° East 207 238 7,500 -800 Descending Albuquerque Center
Thu 01:41:38 AM 35.0444 -106.7286 81° East 225 259 7,300 -1,000 Descending Albuquerque Center
Thu 01:42:35 AM 35.0436 -106.6650 91° East 166 191 6,300 -893 Descending Albuquerque Center
Thu 01:43:39 AM 35.0444 -106.6197 89° East 164 189 5,500 -750 Descending Albuquerque Center
Thu 01:45:00 AM 35.0402 -106.6092 59° Northeast  Level Estimated

Login

Don't have an account? Register now (free) for customized features, flight alerts, and more!